Time;durP1;ratioP1;P1;durP2;ratioP2;P2;SDS_P1;SDS_P2;PMS_P1;PMS_P2;Temp;Humidity;BMP_temperature;BMP_pressure;BME280_temperature;BME280_humidity;BME280_pressure;Samples;Min_cycle;Max_cycle;Signal;HPM_P1;HPM_P2
2021/03/20 00:00:19;;;;;;;4.50;2.10;;;;;;;-3.06;74.03;102215.28;5035370;28;20408;-69
2021/03/20 00:02:44;;;;;;;5.27;2.17;;;;;;;-3.05;73.80;102217.03;5017495;28;20480;-70
2021/03/20 00:05:10;;;;;;;4.70;1.83;;;;;;;-3.04;73.73;102218.81;5035207;28;20820;-70
2021/03/20 00:07:36;;;;;;;6.00;1.70;;;;;;;-2.97;73.73;102225.97;5017571;28;20708;-71
2021/03/20 00:10:05;;;;;;;4.30;1.53;;;;;;;-3.02;73.79;102219.72;5000667;28;20226;-70
2021/03/20 00:12:30;;;;;;;5.27;2.00;;;;;;;-3.03;73.90;102217.09;5035224;28;20180;-71
2021/03/20 00:14:55;;;;;;;4.83;1.73;;;;;;;-3.06;73.85;102217.88;5017384;28;20412;-71
2021/03/20 00:17:21;;;;;;;3.23;1.60;;;;;;;-3.06;73.85;102217.00;5017792;28;20184;-71
2021/03/20 00:19:46;;;;;;;5.70;1.87;;;;;;;-3.09;74.20;102206.47;5034787;28;20557;-71
2021/03/20 00:22:11;;;;;;;3.00;1.50;;;;;;;-3.02;73.41;102211.88;5034830;28;20546;-70
2021/03/20 00:24:37;;;;;;;3.43;1.70;;;;;;;-2.99;73.78;102204.13;5035609;28;20174;-71
2021/03/20 00:27:02;;;;;;;2.87;1.60;;;;;;;-2.96;73.94;102217.28;5035038;28;20176;-68
2021/03/20 00:29:27;;;;;;;2.73;1.50;;;;;;;-2.98;74.28;102215.47;5035108;28;20612;-70
2021/03/20 00:31:53;;;;;;;5.80;1.60;;;;;;;-2.99;74.87;102213.69;5017215;28;20174;-69
2021/03/20 00:34:18;;;;;;;2.53;1.67;;;;;;;-3.02;74.67;102217.13;5016673;28;20169;-70
2021/03/20 00:36:43;;;;;;;5.60;1.70;;;;;;;-3.00;74.57;102202.34;5034421;28;20173;-70
2021/03/20 00:39:09;;;;;;;2.60;1.50;;;;;;;-2.99;74.57;102213.69;5034888;28;20514;-70
2021/03/20 00:41:35;;;;;;;5.83;1.93;;;;;;;-3.01;74.12;102195.38;5017382;28;20176;-69
2021/03/20 00:44:01;;;;;;;5.60;2.00;;;;;;;-3.03;74.41;102207.50;5034592;28;20241;-70
2021/03/20 00:46:26;;;;;;;5.13;1.67;;;;;;;-2.93;74.21;102186.00;5016842;28;20412;-69
2021/03/20 00:48:51;;;;;;;5.57;1.60;;;;;;;-2.88;73.63;102188.72;5016849;28;20197;-69
2021/03/20 00:51:17;;;;;;;5.93;2.00;;;;;;;-2.91;74.26;102191.28;5034675;28;20257;-71
2021/03/20 00:53:42;;;;;;;4.20;1.60;;;;;;;-2.94;74.51;102196.44;5016689;28;20181;-70
2021/03/20 00:56:07;;;;;;;4.40;1.87;;;;;;;-2.94;74.37;102197.31;5034466;28;20204;-71
2021/03/20 00:58:34;;;;;;;4.30;1.87;;;;;;;-2.92;74.75;102206.06;5033927;28;20199;-70
2021/03/20 01:01:12;;;;;;;6.00;1.70;;;;;;;-2.97;74.46;102206.81;5016711;28;20175;-70
2021/03/20 01:03:38;;;;;;;4.63;1.93;;;;;;;-2.99;74.58;102208.47;5016888;28;20387;-70
2021/03/20 01:06:05;;;;;;;5.93;2.17;;;;;;;-2.95;74.61;102205.13;5034111;28;20462;-70
2021/03/20 01:08:30;;;;;;;4.27;1.60;;;;;;;-2.92;74.27;102200.84;5033634;28;20443;-70
2021/03/20 01:10:56;;;;;;;5.13;1.83;;;;;;;-2.86;74.27;102195.75;5034191;28;20509;-69
2021/03/20 01:13:21;;;;;;;3.77;1.60;;;;;;;-2.82;73.90;102194.09;5033595;28;20258;-70
2021/03/20 01:15:47;;;;;;;4.70;1.73;;;;;;;-2.80;74.12;102195.00;5033846;28;20174;-69
2021/03/20 01:18:12;;;;;;;5.23;2.10;;;;;;;-2.95;74.82;102199.88;5016144;28;20197;-69
2021/03/20 01:20:38;;;;;;;8.00;2.00;;;;;;;-2.96;74.64;102192.91;5033576;28;20187;-69
2021/03/20 01:23:04;;;;;;;4.40;1.90;;;;;;;-2.97;74.58;102192.00;5033868;28;20196;-69
2021/03/20 01:25:31;;;;;;;3.13;1.60;;;;;;;-2.96;74.91;102200.75;5016148;28;20172;-70
2021/03/20 01:27:56;;;;;;;4.47;1.93;;;;;;;-2.98;75.38;102189.34;5015938;28;20628;-69
2021/03/20 01:30:29;;;;;;;5.20;1.83;;;;;;;-3.05;75.14;102180.47;5033353;28;20494;-70
2021/03/20 01:32:55;;;;;;;7.00;1.90;;;;;;;-3.04;74.93;102187.47;5016466;28;20152;-70
2021/03/20 01:35:20;;;;;;;4.33;1.80;;;;;;;-3.05;75.41;102209.22;5033734;28;20889;-70
2021/03/20 01:37:46;;;;;;;3.13;1.67;;;;;;;-3.10;75.18;102205.59;5015633;28;20190;-70
2021/03/20 01:40:12;;;;;;;4.50;1.40;;;;;;;-3.04;74.68;102192.69;5016317;28;20172;-70
2021/03/20 01:42:42;;;;;;;5.13;1.80;;;;;;;-2.99;74.52;102198.91;5015822;28;20182;-70
2021/03/20 01:45:21;;;;;;;4.10;1.70;;;;;;;-2.97;73.88;102180.69;5033252;28;20419;-70
2021/03/20 01:47:50;;;;;;;3.70;2.17;;;;;;;-2.97;73.97;102181.56;5033425;28;20530;-70
2021/03/20 01:50:34;;;;;;;3.20;1.60;;;;;;;-2.93;73.60;102180.78;5015600;28;20952;-70
2021/03/20 01:53:03;;;;;;;3.40;1.70;;;;;;;-2.91;73.60;102180.81;5015968;28;20877;-70
2021/03/20 01:55:29;;;;;;;2.87;1.67;;;;;;;-2.84;72.89;102187.94;5015559;28;20500;-70
2021/03/20 01:57:58;;;;;;;2.57;1.37;;;;;;;-2.80;72.38;102187.16;5015762;28;20847;-70
2021/03/20 02:00:27;;;;;;;5.80;1.50;;;;;;;-2.78;72.28;102181.97;5016142;28;20609;-70
2021/03/20 02:02:52;;;;;;;4.60;1.30;;;;;;;-2.77;72.19;102183.75;5019292;28;20414;-70
2021/03/20 02:05:27;;;;;;;6.30;1.50;;;;;;;-2.76;71.62;102186.38;5020824;28;20469;-70
2021/03/20 02:07:53;;;;;;;7.67;2.37;;;;;;;-2.76;71.63;102188.13;5020028;28;20261;-69
2021/03/20 02:10:19;;;;;;;4.70;1.53;;;;;;;-2.81;71.78;102174.06;5019856;28;20530;-70
2021/03/20 02:12:47;;;;;;;2.93;1.50;;;;;;;-2.84;71.72;102167.03;5019762;28;20467;-69
2021/03/20 02:15:36;;;;;;;3.93;1.47;;;;;;;-2.95;72.75;102169.41;5036962;28;20183;-70
2021/03/20 02:18:28;;;;;;;2.70;1.60;;;;;;;-2.97;72.67;102175.47;5019226;28;20523;-70
2021/03/20 02:21:01;;;;;;;4.60;1.60;;;;;;;-2.96;72.58;102180.72;5019509;28;20399;-70
2021/03/20 02:23:40;;;;;;;3.10;1.47;;;;;;;-3.05;73.08;102166.53;5019186;28;20412;-70
2021/03/20 02:26:52;;;;;;;4.80;1.60;;;;;;;-3.03;72.35;102168.34;5003462;28;20813;-70
2021/03/20 02:29:42;;;;;;;2.00;1.10;;;;;;;-3.00;72.54;102167.50;5042726;28;20529;-70
2021/03/20 02:32:26;;;;;;;4.53;1.40;;;;;;;-2.95;72.39;102164.19;5038675;28;20403;-69
2021/03/20 02:35:19;;;;;;;3.63;1.57;;;;;;;-2.98;72.22;102168.44;5019431;28;20547;-70
2021/03/20 02:38:10;;;;;;;4.13;1.90;;;;;;;-2.94;72.09;102171.19;5036957;28;20481;-69
2021/03/20 02:40:56;;;;;;;3.10;1.60;;;;;;;-2.88;71.22;102160.88;5003348;28;20427;-70
2021/03/20 02:43:39;;;;;;;6.07;1.43;;;;;;;-2.99;71.87;102151.00;5019253;28;20400;-70
2021/03/20 02:46:19;;;;;;;4.53;1.90;;;;;;;-3.04;71.63;102148.28;5018919;28;20409;-70
2021/03/20 02:49:05;;;;;;;3.23;1.50;;;;;;;-3.01;71.33;102161.41;5036667;28;20472;-70
2021/03/20 02:51:44;;;;;;;5.87;1.60;;;;;;;-3.00;70.90;102160.56;5036437;28;20410;-70
2021/03/20 02:54:31;;;;;;;3.80;1.70;;;;;;;-2.92;70.60;102151.19;5018905;28;20480;-70
2021/03/20 02:57:00;;;;;;;3.80;1.60;;;;;;;-2.99;70.77;102157.09;5018754;28;20400;-70
2021/03/20 02:59:30;;;;;;;2.43;1.30;;;;;;;-2.94;70.70;102158.13;5018885;28;20515;-70
2021/03/20 03:01:57;;;;;;;5.67;1.80;;;;;;;-2.91;70.20;102159.91;5018289;28;20419;-70
2021/03/20 03:04:24;;;;;;;4.67;1.90;;;;;;;-2.95;69.97;102168.53;5018583;28;20416;-70
2021/03/20 03:06:56;;;;;;;4.47;1.63;;;;;;;-2.91;69.76;102166.03;5018286;28;20414;-70
2021/03/20 03:09:30;;;;;;;5.90;2.10;;;;;;;-2.92;69.34;102152.94;5018163;28;20508;-70
2021/03/20 03:12:04;;;;;;;3.40;1.90;;;;;;;-2.84;69.34;102153.97;5018436;28;20402;-70
2021/03/20 03:14:40;;;;;;;4.67;1.17;;;;;;;-2.88;69.18;102152.16;5035081;28;20404;-70
2021/03/20 03:17:06;;;;;;;2.63;1.30;;;;;;;-2.81;69.03;102146.22;5035801;28;20479;-70
2021/03/20 03:19:54;;;;;;;4.10;1.60;;;;;;;-2.77;68.41;102152.38;5018534;28;20420;-70
2021/03/20 03:22:24;;;;;;;4.93;1.60;;;;;;;-2.77;68.35;102162.84;5018279;28;20200;-70
2021/03/20 03:24:53;;;;;;;4.07;1.63;;;;;;;-2.78;68.77;102148.88;5018665;28;20727;-70
2021/03/20 03:27:19;;;;;;;2.63;1.40;;;;;;;-2.72;68.59;102154.25;5018140;28;20499;-70
2021/03/20 03:29:44;;;;;;;4.97;1.50;;;;;;;-2.66;68.21;102150.88;5018183;28;20504;-70
2021/03/20 03:32:39;;;;;;;3.77;1.80;;;;;;;-2.65;68.32;102158.75;5035937;28;20496;-70
2021/03/20 03:35:04;;;;;;;4.07;1.73;;;;;;;-2.69;68.74;102166.50;5001537;28;20171;-69
2021/03/20 03:37:39;;;;;;;4.07;1.40;;;;;;;-2.70;68.76;102165.63;5035982;28;20736;-70
2021/03/20 03:40:23;;;;;;;4.67;1.67;;;;;;;-2.74;69.15;102162.91;5017869;28;20200;-70
2021/03/20 03:42:50;;;;;;;2.10;1.40;;;;;;;-2.72;69.52;102163.81;5001753;28;20786;-70
2021/03/20 03:45:16;;;;;;;4.03;1.80;;;;;;;-2.70;69.34;102159.50;5017946;28;20425;-70
2021/03/20 03:47:42;;;;;;;4.20;1.73;;;;;;;-2.74;69.73;102163.78;5035875;28;20425;-70
2021/03/20 03:50:17;;;;;;;4.47;1.77;;;;;;;-2.71;69.54;102155.13;5035384;28;20791;-69
2021/03/20 03:52:42;;;;;;;2.43;1.30;;;;;;;-2.68;69.31;102156.06;5001484;28;20170;-70
2021/03/20 03:55:08;;;;;;;4.27;1.90;;;;;;;-2.73;69.51;102155.09;5018071;28;20834;-70
2021/03/20 03:57:58;;;;;;;6.47;2.00;;;;;;;-2.73;69.95;102156.81;5035573;28;20667;-70
2021/03/20 04:00:48;;;;;;;1.80;1.20;;;;;;;-2.76;69.91;102154.16;5017705;28;20152;-70
2021/03/20 04:03:38;;;;;;;3.83;2.00;;;;;;;-2.77;69.52;102141.94;5017579;28;20564;-70
2021/03/20 04:06:47;;;;;;;6.40;1.63;;;;;;;-2.70;69.20;102126.41;5035056;28;20386;-70
2021/03/20 04:09:17;;;;;;;3.93;1.60;;;;;;;-2.65;69.21;102108.22;5035000;28;20502;-70
2021/03/20 04:11:51;;;;;;;2.40;1.60;;;;;;;-2.64;68.98;102108.25;5017341;28;20408;-70
2021/03/20 04:14:28;;;;;;;3.50;1.57;;;;;;;-2.58;68.82;102108.41;5017726;28;20861;-70
2021/03/20 04:17:04;;;;;;;3.37;1.80;;;;;;;-2.63;68.93;102115.22;5018038;28;20386;-70
2021/03/20 04:19:47;;;;;;;3.73;1.60;;;;;;;-2.64;68.53;102113.47;5017785;28;20420;-70
2021/03/20 04:22:38;;;;;;;3.43;1.60;;;;;;;-2.65;68.60;102119.56;5018914;28;20399;-70
2021/03/20 04:25:10;;;;;;;6.17;1.70;;;;;;;-2.68;68.37;102129.94;5017150;28;20397;-69
2021/03/20 04:27:40;;;;;;;6.50;1.73;;;;;;;-2.67;67.72;102123.88;5001049;28;20411;-69
2021/03/20 04:30:15;;;;;;;2.73;1.47;;;;;;;-2.67;67.46;102120.38;5017627;28;20446;-70
2021/03/20 04:32:48;;;;;;;4.33;1.40;;;;;;;-2.58;66.69;102131.03;5017120;28;20403;-70
2021/03/20 04:35:22;;;;;;;2.73;1.40;;;;;;;-2.54;66.33;102130.25;5017033;28;20892;-70
2021/03/20 04:37:49;;;;;;;5.53;1.90;;;;;;;-2.55;66.63;102144.19;5016784;28;20529;-70
2021/03/20 04:40:38;;;;;;;3.50;1.40;;;;;;;-2.64;66.77;102146.56;5017058;28;20402;-70
2021/03/20 04:43:03;;;;;;;4.43;1.30;;;;;;;-2.66;66.78;102148.25;5016897;28;20414;-69
2021/03/20 04:45:32;;;;;;;2.00;1.33;;;;;;;-2.54;66.05;102144.22;5017000;28;20424;-70
2021/03/20 04:48:02;;;;;;;5.07;1.80;;;;;;;-2.55;65.76;102136.34;5016776;28;20194;-69
2021/03/20 04:50:28;;;;;;;3.43;1.50;;;;;;;-2.56;66.08;102132.84;5016365;28;20444;-69
2021/03/20 04:52:56;;;;;;;3.80;1.83;;;;;;;-2.45;65.86;102130.44;5016422;28;20405;-69
2021/03/20 04:55:21;;;;;;;2.60;1.33;;;;;;;-2.42;65.40;102130.50;4999864;28;20424;-70
2021/03/20 04:57:56;;;;;;;3.30;1.20;;;;;;;-2.41;65.66;102113.09;5016413;28;20860;-70
2021/03/20 05:00:26;;;;;;;2.87;1.30;;;;;;;-2.41;65.59;102124.44;5017288;28;20154;-70
2021/03/20 05:02:58;;;;;;;3.57;1.40;;;;;;;-2.39;65.23;102119.22;5016512;28;20428;-70
2021/03/20 05:05:28;;;;;;;1.70;1.20;;;;;;;-2.38;65.48;102120.97;5016513;28;20403;-69
2021/03/20 05:07:59;;;;;;;1.83;1.13;;;;;;;-2.43;64.79;102113.06;5015899;28;20400;-70
2021/03/20 05:10:31;;;;;;;2.27;1.17;;;;;;;-2.34;64.57;102105.38;5015874;28;20490;-69
2021/03/20 05:12:58;;;;;;;3.00;1.47;;;;;;;-2.33;64.84;102115.00;5016103;28;20797;-70
2021/03/20 05:15:27;;;;;;;2.93;1.27;;;;;;;-2.40;65.23;102113.13;5033519;28;20913;-70
2021/03/20 05:17:53;;;;;;;3.23;1.40;;;;;;;-2.31;64.23;102115.03;5016113;28;20508;-69
2021/03/20 05:20:18;;;;;;;3.50;1.33;;;;;;;-2.26;63.71;102127.34;5033408;28;20489;-70
2021/03/20 05:22:44;;;;;;;3.57;1.30;;;;;;;-2.26;64.19;102116.88;5033564;28;20176;-70
2021/03/20 05:25:13;;;;;;;3.93;1.30;;;;;;;-2.30;64.14;102122.91;5016185;28;20242;-70
2021/03/20 05:27:38;;;;;;;3.63;1.30;;;;;;;-2.30;63.84;102124.63;5015725;28;20231;-70
2021/03/20 05:30:05;;;;;;;4.43;1.70;;;;;;;-2.29;63.69;102126.41;5015519;28;20795;-70
2021/03/20 05:32:32;;;;;;;3.27;1.43;;;;;;;-2.29;64.03;102127.28;5033581;28;20205;-70
2021/03/20 05:34:59;;;;;;;1.67;1.20;;;;;;;-2.28;62.81;102129.03;4999527;28;20423;-70
2021/03/20 05:37:31;;;;;;;2.83;1.00;;;;;;;-2.31;63.27;102134.22;5015384;28;20959;-70
2021/03/20 05:39:57;;;;;;;3.63;1.40;;;;;;;-2.31;61.96;102142.06;5015675;28;20497;-69
2021/03/20 05:42:34;;;;;;;3.90;1.53;;;;;;;-2.28;62.13;102149.97;5033428;28;20839;-69
2021/03/20 05:45:18;;;;;;;4.83;1.30;;;;;;;-2.28;62.63;102151.69;5033195;28;20160;-70
2021/03/20 05:48:02;;;;;;;4.70;1.77;;;;;;;-2.21;62.58;102140.53;5015712;28;20398;-70
2021/03/20 05:50:41;;;;;;;4.37;1.50;;;;;;;-2.16;62.01;102146.72;5016002;28;20440;-69
2021/03/20 05:53:31;;;;;;;3.50;1.30;;;;;;;-2.07;62.33;102143.41;5015812;28;20495;-69
2021/03/20 05:55:59;;;;;;;2.60;1.20;;;;;;;-2.12;62.88;102134.59;5033070;28;20389;-69
2021/03/20 05:58:56;;;;;;;2.07;1.37;;;;;;;-2.09;62.95;102135.53;5015457;28;20839;-68
2021/03/20 06:01:24;;;;;;;1.93;1.37;;;;;;;-2.07;62.70;102119.88;5033352;28;20380;-68
2021/03/20 06:04:22;;;;;;;2.50;1.30;;;;;;;-2.01;62.36;102120.84;5015303;28;20420;-69
2021/03/20 06:07:12;;;;;;;3.27;1.20;;;;;;;-1.96;62.56;102113.09;5015597;28;20397;-69
2021/03/20 06:09:45;;;;;;;2.50;1.27;;;;;;;-1.99;62.22;102119.16;5015301;28;20865;-69
2021/03/20 06:12:25;;;;;;;1.20;0.90;;;;;;;-1.97;62.34;102116.56;4999094;28;20421;-69
2021/03/20 06:15:14;;;;;;;4.53;1.60;;;;;;;-1.94;61.94;102124.47;5037141;28;20414;-69
2021/03/20 06:18:08;;;;;;;2.83;1.10;;;;;;;-1.81;61.26;102109.88;5015602;28;20402;-69
2021/03/20 06:20:52;;;;;;;1.73;1.00;;;;;;;-1.75;61.69;102118.72;4998903;28;20513;-71
2021/03/20 06:23:41;;;;;;;4.80;1.27;;;;;;;-1.66;60.65;102113.66;5015207;28;20897;-69
2021/03/20 06:26:23;;;;;;;4.10;1.43;;;;;;;-1.70;60.65;102098.75;5015217;28;20793;-70
2021/03/20 06:28:53;;;;;;;1.70;1.03;;;;;;;-1.63;60.43;102091.88;5014952;28;20502;-70
2021/03/20 06:31:25;;;;;;;5.43;1.50;;;;;;;-1.63;60.61;102084.91;4998780;28;20410;-70
2021/03/20 06:33:53;;;;;;;2.40;1.20;;;;;;;-1.62;60.74;102081.44;5015370;28;20825;-71
2021/03/20 06:36:26;;;;;;;1.37;1.10;;;;;;;-1.65;61.11;102086.63;4998622;28;20179;-71
2021/03/20 06:39:19;;;;;;;1.97;1.20;;;;;;;-1.62;61.15;102084.03;5015048;28;20464;-70
2021/03/20 06:41:49;;;;;;;4.03;1.30;;;;;;;-1.54;60.94;102075.44;5032725;28;20161;-71
2021/03/20 06:44:22;;;;;;;5.17;1.10;;;;;;;-1.51;60.67;102083.34;4998760;28;20431;-71
2021/03/20 06:46:49;;;;;;;1.87;0.97;;;;;;;-1.42;60.63;102081.75;5033260;28;20167;-69
2021/03/20 06:49:25;;;;;;;3.50;1.20;;;;;;;-1.31;60.37;102081.94;5035622;28;20457;-69
2021/03/20 06:51:52;;;;;;;2.87;1.37;;;;;;;-1.27;60.18;102084.63;5036553;28;20262;-69
2021/03/20 06:54:19;;;;;;;1.93;1.23;;;;;;;-1.19;59.57;102084.72;5019009;28;20183;-69
2021/03/20 06:56:45;;;;;;;3.70;1.50;;;;;;;-1.00;58.42;102086.78;5018729;28;20168;-69
2021/03/20 06:59:12;;;;;;;4.00;1.40;;;;;;;-0.92;58.13;102080.75;5018803;28;20184;-70
2021/03/20 07:01:48;;;;;;;2.63;1.30;;;;;;;-0.92;59.15;102086.00;5036150;28;20540;-69
2021/03/20 07:04:19;;;;;;;2.10;1.20;;;;;;;-0.72;57.88;102074.06;5018873;28;20201;-70
2021/03/20 07:06:57;;;;;;;3.33;1.47;;;;;;;-0.65;56.56;102082.00;5018434;28;20222;-69
2021/03/20 07:09:22;;;;;;;0.87;0.83;;;;;;;-0.78;56.81;102084.44;5018310;28;20218;-71
2021/03/20 07:12:06;;;;;;;2.73;1.47;;;;;;;-0.58;56.96;102096.06;5035995;28;20177;-70
2021/03/20 07:14:44;;;;;;;2.50;1.20;;;;;;;-0.41;56.48;102091.03;5036622;28;20183;-70
2021/03/20 07:17:22;;;;;;;5.50;1.10;;;;;;;-0.20;55.48;102085.16;5018154;28;20687;-71
2021/03/20 07:20:13;;;;;;;2.10;0.97;;;;;;;-0.03;54.71;102089.72;5036296;28;20595;-71
2021/03/20 07:22:48;;;;;;;3.40;1.27;;;;;;;0.13;54.29;102085.50;5036426;28;20207;-70
2021/03/20 07:25:27;;;;;;;4.93;1.30;;;;;;;-0.04;54.13;102092.31;5018065;28;20301;-71
2021/03/20 07:28:06;;;;;;;2.30;1.10;;;;;;;0.23;52.90;102095.22;5018213;28;20545;-71
2021/03/20 07:30:34;;;;;;;1.87;1.20;;;;;;;0.26;53.37;102090.00;5036605;28;20184;-70
2021/03/20 07:32:59;;;;;;;4.50;2.50;;;;;;;0.21;52.50;102103.97;5036523;28;20537;-70
2021/03/20 07:35:34;;;;;;;3.53;1.63;;;;;;;-0.09;53.56;102094.00;5036159;28;20177;-70
2021/03/20 07:38:27;;;;;;;14.33;4.97;;;;;;;0.11;53.05;102099.50;5018279;28;20164;-70
2021/03/20 07:41:08;;;;;;;11.80;4.37;;;;;;;0.26;52.81;102097.88;5015533;28;20180;-70
2021/03/20 07:43:33;;;;;;;5.93;2.57;;;;;;;0.23;52.78;102105.72;5018264;28;20164;-70
2021/03/20 07:46:25;;;;;;;3.47;1.40;;;;;;;0.23;51.84;102112.72;5036133;28;20222;-70
2021/03/20 07:49:03;;;;;;;2.10;1.33;;;;;;;0.14;52.24;102112.66;5014349;28;20289;-70
2021/03/20 07:51:43;;;;;;;3.77;1.80;;;;;;;0.30;52.09;102106.66;5018453;28;20525;-71
2021/03/20 07:54:19;;;;;;;7.97;3.37;;;;;;;0.30;52.14;102098.78;5018923;28;20648;-70
2021/03/20 07:56:44;;;;;;;6.70;1.87;;;;;;;-0.03;53.01;102099.31;5018336;28;20160;-70
2021/03/20 07:59:20;;;;;;;4.67;2.40;;;;;;;0.34;52.58;102099.69;5017722;28;20249;-69
2021/03/20 08:01:51;;;;;;;2.90;1.73;;;;;;;0.48;52.60;102098.97;5018597;28;20532;-70
2021/03/20 08:04:16;;;;;;;2.87;1.47;;;;;;;0.37;51.82;102102.34;5017979;28;20152;-70
2021/03/20 08:06:45;;;;;;;4.97;1.77;;;;;;;0.41;51.71;102099.78;5035759;28;20604;-70
2021/03/20 08:09:16;;;;;;;3.30;1.97;;;;;;;0.68;51.85;102091.22;5017582;28;20204;-70
2021/03/20 08:11:59;;;;;;;3.00;1.03;;;;;;;0.84;50.13;102093.13;5035290;28;20168;-70
2021/03/20 08:14:44;;;;;;;1.90;1.23;;;;;;;0.84;48.80;102102.75;5036274;28;20163;-70
2021/03/20 08:17:14;;;;;;;3.57;1.53;;;;;;;0.66;49.39;102086.84;5017540;28;20169;-69
2021/03/20 08:19:40;;;;;;;2.60;1.30;;;;;;;0.89;49.16;102096.66;5018552;28;20287;-69
2021/03/20 08:22:33;;;;;;;2.57;1.17;;;;;;;0.98;49.31;102101.09;5000691;28;20311;-69
2021/03/20 08:25:13;;;;;;;4.23;1.80;;;;;;;0.62;50.09;102099.94;5017441;28;20207;-69
2021/03/20 08:28:00;;;;;;;4.17;1.63;;;;;;;1.16;48.68;102110.84;5034965;28;20161;-70
2021/03/20 08:30:48;;;;;;;1.77;0.97;;;;;;;1.40;47.52;102115.34;5017680;28;20678;-70
2021/03/20 08:33:30;;;;;;;3.80;1.30;;;;;;;1.45;46.82;102103.97;5017287;28;20161;-70
2021/03/20 08:36:02;;;;;;;1.80;0.97;;;;;;;1.23;47.20;102125.81;5016939;28;20188;-70
2021/03/20 08:39:06;;;;;;;2.87;1.20;;;;;;;1.31;47.14;102113.56;5034865;28;20242;-69
2021/03/20 08:41:59;;;;;;;2.57;1.60;;;;;;;1.31;47.96;102110.06;5003011;28;20632;-70
2021/03/20 08:44:49;;;;;;;6.17;1.43;;;;;;;1.40;48.66;102115.34;5034374;28;20677;-70
2021/03/20 08:47:42;;;;;;;3.50;1.30;;;;;;;1.86;46.82;102104.16;5017048;28;20564;-70
2021/03/20 08:50:10;;;;;;;3.10;1.43;;;;;;;2.02;46.49;102110.34;5016879;28;20194;-69
2021/03/20 08:52:45;;;;;;;4.00;1.10;;;;;;;2.04;45.85;102105.97;5034568;28;20173;-70
2021/03/20 08:55:36;;;;;;;1.90;1.27;;;;;;;2.15;46.20;102112.13;5016779;28;20635;-70
2021/03/20 08:58:36;;;;;;;4.70;1.40;;;;;;;2.16;46.76;102100.69;5016724;28;20201;-70
2021/03/20 09:01:07;;;;;;;7.50;1.57;;;;;;;2.17;47.31;102105.09;5034226;28;20647;-70
2021/03/20 09:03:36;;;;;;;2.40;1.20;;;;;;;2.32;46.13;102109.53;5033766;28;20168;-70
2021/03/20 09:06:28;;;;;;;2.50;1.03;;;;;;;2.30;46.53;102097.22;4999914;28;20201;-69
2021/03/20 09:08:54;;;;;;;2.73;1.30;;;;;;;2.36;46.18;102099.88;5027801;28;20295;-70
2021/03/20 09:11:24;;;;;;;5.20;1.53;;;;;;;2.47;46.45;102100.75;5015741;28;20175;-70
2021/03/20 09:14:02;;;;;;;3.10;1.60;;;;;;;2.66;45.96;102096.38;5034237;28;20651;-70
2021/03/20 09:16:32;;;;;;;3.50;1.50;;;;;;;2.71;45.70;102110.44;5033796;28;20186;-70
2021/03/20 09:19:01;;;;;;;2.03;1.00;;;;;;;2.86;45.96;102105.13;5033759;28;20191;-69
2021/03/20 09:21:26;;;;;;;4.23;1.40;;;;;;;2.95;44.84;102107.75;5015885;28;20197;-71
2021/03/20 09:23:51;;;;;;;5.00;1.40;;;;;;;2.96;44.75;102106.88;5015983;28;20560;-70
2021/03/20 09:26:40;;;;;;;9.23;1.50;;;;;;;2.96;45.06;102106.00;5033889;28;20269;-71
2021/03/20 09:29:07;;;;;;;2.63;1.17;;;;;;;3.05;44.18;102095.44;5015945;28;20184;-69
2021/03/20 09:31:39;;;;;;;3.17;1.17;;;;;;;3.27;44.54;102097.13;4999487;28;20176;-69
2021/03/20 09:34:27;;;;;;;2.20;1.33;;;;;;;3.45;41.25;102086.53;5016338;28;20158;-70
2021/03/20 09:36:52;;;;;;;7.07;1.43;;;;;;;3.32;37.82;102103.28;5015866;28;20159;-70
2021/03/20 09:39:39;;;;;;;3.33;1.20;;;;;;;3.06;37.67;102076.09;5015931;28;20286;-71
2021/03/20 09:42:37;;;;;;;2.57;1.30;;;;;;;3.27;38.64;102088.34;5033202;28;20174;-70
2021/03/20 09:45:28;;;;;;;1.70;1.07;;;;;;;3.37;39.51;102082.19;5033461;28;20185;-70
2021/03/20 09:47:55;;;;;;;2.40;1.37;;;;;;;3.42;39.04;102083.91;5033303;28;20160;-70
2021/03/20 09:50:20;;;;;;;3.70;1.60;;;;;;;3.52;37.85;102074.19;4999152;28;20191;-71
2021/03/20 09:53:07;;;;;;;3.33;1.77;;;;;;;3.46;39.27;102063.66;5033681;28;20182;-70
2021/03/20 09:55:34;;;;;;;4.53;1.40;;;;;;;3.35;38.11;102060.19;5037436;28;20171;-71
2021/03/20 09:58:01;;;;;;;3.27;1.30;;;;;;;3.27;38.01;102069.88;5015740;28;20754;-70
2021/03/20 10:00:56;;;;;;;1.47;1.27;;;;;;;3.12;39.16;102058.50;5033273;28;20551;-70
2021/03/20 10:03:46;;;;;;;2.73;1.20;;;;;;;3.55;37.89;102068.00;5034020;28;20186;-70
2021/03/20 10:06:34;;;;;;;4.53;1.20;;;;;;;3.40;38.24;102061.94;5032941;28;20180;-70
2021/03/20 10:09:19;;;;;;;1.60;1.03;;;;;;;3.19;39.24;102066.38;5033707;28;20293;-70
2021/03/20 10:11:52;;;;;;;5.27;1.60;;;;;;;3.10;40.44;102060.25;5033331;28;20166;-70
2021/03/20 10:14:29;;;;;;;3.73;2.00;;;;;;;3.25;40.53;102058.44;5033267;28;20206;-70
2021/03/20 10:17:20;;;;;;;1.53;0.90;;;;;;;3.26;39.45;102057.56;5015647;28;20199;-69
2021/03/20 10:20:12;;;;;;;5.53;1.70;;;;;;;3.33;40.35;102044.34;5015486;28;20191;-70
2021/03/20 10:22:50;;;;;;;3.33;1.33;;;;;;;3.33;39.24;102046.97;5022912;28;20680;-70
2021/03/20 10:25:15;;;;;;;3.70;1.20;;;;;;;3.27;40.18;102054.03;5019905;28;20190;-70
2021/03/20 10:27:49;;;;;;;3.40;1.60;;;;;;;3.43;40.26;102037.28;5019996;28;20586;-71
2021/03/20 10:30:25;;;;;;;5.30;1.40;;;;;;;3.56;38.38;102038.09;5019711;28;20194;-70
2021/03/20 10:33:06;;;;;;;2.13;1.30;;;;;;;3.61;38.87;102033.66;5019051;28;20203;-70
2021/03/20 10:35:37;;;;;;;3.07;1.43;;;;;;;3.42;39.05;102039.03;5019070;28;20166;-70
2021/03/20 10:38:28;;;;;;;5.13;1.53;;;;;;;3.28;39.64;102046.13;5036579;28;20198;-71
2021/03/20 10:41:08;;;;;;;3.40;1.50;;;;;;;3.44;39.16;102023.19;5019405;28;20175;-69
2021/03/20 10:43:44;;;;;;;2.17;1.27;;;;;;;3.42;39.98;102015.28;5019166;28;20200;-70
2021/03/20 10:46:20;;;;;;;2.57;1.33;;;;;;;3.60;40.51;102011.66;5019736;28;20241;-70
2021/03/20 10:48:46;;;;;;;6.07;1.73;;;;;;;3.75;40.25;102016.00;5018685;28;20196;-70
2021/03/20 10:51:11;;;;;;;5.80;1.80;;;;;;;3.69;40.39;102011.59;5036471;28;20196;-71
2021/03/20 10:53:46;;;;;;;9.10;3.03;;;;;;;3.46;40.64;102013.50;5036840;28;20179;-69
2021/03/20 10:56:23;;;;;;;6.67;3.60;;;;;;;3.51;40.40;102002.91;5019492;28;20261;-70
2021/03/20 10:58:48;;;;;;;5.00;2.53;;;;;;;3.66;40.15;102002.81;5036787;28;20190;-69
2021/03/20 11:01:15;;;;;;;6.20;2.20;;;;;;;3.96;39.97;102000.00;5038948;28;20240;-70
2021/03/20 11:03:44;;;;;;;5.23;2.20;;;;;;;4.17;39.06;102000.72;5038417;28;20175;-70
2021/03/20 11:06:13;;;;;;;6.40;1.67;;;;;;;4.14;38.53;101984.91;5036939;28;20196;-70
2021/03/20 11:08:40;;;;;;;2.83;1.77;;;;;;;3.97;38.94;102004.38;5036283;28;20207;-70
2021/03/20 11:11:10;;;;;;;3.63;1.47;;;;;;;4.04;38.65;101997.28;5018507;28;20210;-69
2021/03/20 11:13:42;;;;;;;3.37;1.93;;;;;;;3.87;39.09;102004.47;5018523;28;20254;-70
2021/03/20 11:16:10;;;;;;;2.83;1.40;;;;;;;3.94;39.20;101983.28;5036422;28;20242;-69
2021/03/20 11:18:40;;;;;;;3.10;1.67;;;;;;;3.93;39.32;101994.72;5036037;28;20611;-70
2021/03/20 11:21:19;;;;;;;4.27;1.67;;;;;;;4.03;39.95;101988.47;5035925;28;20182;-69
2021/03/20 11:23:53;;;;;;;2.63;1.67;;;;;;;4.18;40.49;101973.41;5036100;28;20656;-70
2021/03/20 11:26:21;;;;;;;3.70;1.60;;;;;;;4.18;39.26;101984.00;5036315;28;20525;-70
2021/03/20 11:28:47;;;;;;;5.97;2.60;;;;;;;3.95;40.27;101990.31;5035908;28;20192;-70
2021/03/20 11:31:15;;;;;;;5.20;2.03;;;;;;;3.99;39.56;101997.31;5018325;28;20248;-70
2021/03/20 11:33:41;;;;;;;4.20;1.90;;;;;;;3.97;39.60;101990.31;5018007;28;20170;-70
2021/03/20 11:36:15;;;;;;;6.10;1.73;;;;;;;3.98;39.56;101970.91;5035306;28;20182;-70
2021/03/20 11:38:40;;;;;;;3.50;1.30;;;;;;;4.10;39.40;101959.41;5018182;28;20729;-70
2021/03/20 11:41:05;;;;;;;3.03;1.50;;;;;;;4.33;39.98;101965.34;5035907;28;20227;-69
2021/03/20 11:43:48;;;;;;;6.60;2.00;;;;;;;4.39;38.48;101975.84;5036621;28;20541;-70
2021/03/20 11:46:28;;;;;;;2.97;1.50;;;;;;;4.13;38.84;101949.69;5035405;28;20164;-70
2021/03/20 11:48:55;;;;;;;3.00;1.80;;;;;;;4.27;38.35;101945.13;5017712;28;20596;-71
2021/03/20 11:51:27;;;;;;;2.83;1.83;;;;;;;3.93;38.61;101952.47;5035571;28;20210;-70
2021/03/20 11:53:55;;;;;;;3.67;1.60;;;;;;;3.81;39.26;101942.00;5017965;28;20167;-70
2021/03/20 11:56:29;;;;;;;3.47;1.57;;;;;;;3.54;39.94;101963.31;5017961;28;20178;-70
2021/03/20 11:59:00;;;;;;;4.10;1.77;;;;;;;3.39;40.60;101922.94;5017443;28;20298;-68
2021/03/20 12:01:31;;;;;;;2.87;1.60;;;;;;;3.39;40.56;101925.56;5017729;28;20221;-70